Decoded Metar for KEVW (EVANSTON in WY, USA) (IATA:EVW) | Meteo·Mobile Aviation Weather
aviador You're here:

KEVW Decoded Metar

EVANSTON in WY, USA
Report Time2018-11-21 16:53:00
UTC Time2018-11-21 17:42:47
Flight Rules vfr VFR
Wind170° at 05 kt
W.Decomp.*RWY 23: 1.5 kt HW 4.8 kt LCW
W.Rank170° ranks 14
Current wind is below 170° avg. (5.6)
Visibility9999 m
Phenomena:N/A
Clouds:N/A
Expected CloudBase > 6,800 ft AGL from Temp-Dew spread
CeilingNone
Temp03°C (ISA +2)
Dew Point-14°C (28% RH)
AAT-2.1°C
QNH1024 hPa
Density Alt7,067 ft
Elevation7,142 ft
Report Wrong Elevation
Raw Report
KEVW 211653Z AUTO 17005KT 10SM CLR 03/M14 A3024 RMK AO2 SLP232
T00331144=

Extra information for KEVW:More info

Metar Taf Metar & Taf Last 4 Metars F.Rules Stats Wind Profile Meteogram Temp Stats Airport Information Weather charts Add Link Nearby VenuesMetar ALERT Operation Metar Decoded Social comments

AIRNAV info for KEVW